Atlantic - Newfoundland: Past 24 Hour Conditions

 

St. Anthony Airport

11:30 PM NST 23 January 2018
Disclaimer

This table is a summary of hourly weather conditions for the past 24 hours.
Please note that these observations might not always be representative of weather conditions over their associated marine area.

Date / Time
(NST)
Wind(knots) Conditions Visibility(km) Pressure(kPa) Air tempC) Relative humidity(%) Dew pointC) Wind Chill
23 January 2018
23:30 E 5 Cloudy 16 102.4 -10 90 -11 -14
22:30 S 7 Cloudy 16 102.5 -11 89 -13 -18
21:30 N 2 Cloudy 16 102.5 -13 89 -14 -15
20:30 S 5 Cloudy 16 102.6 -12 87 -14 -17
19:30 SW 3 Mostly Cloudy 16 102.6 -13 88 -15 -16
18:30 W 3 Mostly Cloudy 16 102.6 -13 88 -15 -16
17:30 SW 5 Light Snow 16 102.6 -13 87 -15 -19
16:30 WSW 10 Light Snow 16 102.6 -13 85 -15 -21
15:30 WSW 11 gust 18 Sunny 16 102.5 -12 81 -15 -21
14:30 W 15 gust 22 Sunny 16 102.4 -12 80 -15 -22
13:30 WSW 23 gust 28 Sunny 13 102.4 -13 80 -15 -25
12:30 WSW 22 gust 29 Haze 6 102.5 -13 77 -16 -25
11:30 WSW 18 gust 25 Sunny 16 102.5 -14 76 -17 -25
10:30 W 15 gust 21 Sunny 16 102.6 -14 75 -17 -24
9:30 WSW 14 gust 19 Sunny 16 102.5 -14 77 -17 -24
8:30 W 16 gust 22 Sunny 16 102.3 -15 78 -18 -25
7:30 W 19 gust 27 Mainly Clear 15 102.2 -15 77 -18 -26
6:30 W 16 gust 24 Clear 16 102.2 -15 76 -18 -25
5:30 W 17 gust 22 Mainly Clear 16 102.1 -15 74 -18 -26
4:30 W 23 gust 30 Clear 11 102.1 -15 71 -19 -27
3:30 W 21 gust 29 Mainly Clear 11 102.0 -15 71 -19 -27
2:30 W 22 gust 28 Cloudy 16 101.9 -14 70 -18 -26
1:30 W 21 gust 28 Cloudy 15 101.8 -14 71 -18 -26
0:30 W 21 gust 27 Mainly Clear 16 101.8 -14 70 -18 -26
22 January 2018
23:30 W 16 Clear 16 101.7 -14 69 -18 -25

Zoom-in to make a selection

Map of Atlantic - Newfoundland marine weather areas Southwestern Grand Banks - 44138 Banquereau - 44139 Tail of the Bank - 44140 Nickerson Bank - 44251 Northeast Burgeo Bank - 44255 Blanc-Sablon Airport Cap Whittle Chevery Natashquan Airport Heath Point Miscou Island Grand Étang Ingonish Beach North Mountain St.Paul Island J.A. Douglas McCurdy Sydney Airport Charlottetown Airport East Point North Cape Argentia Bonavista Burgeo Cape Race Corner Brook Daniel's Harbour Englee Ferolle Point La Scie Port aux Basques Rocky Harbour Sagona Island St. Anthony Airport St. John's Int'l Airport St. Lawrence Stephenville Airport Twillingate Winterland Wreckhouse Cartwright Airport Mary's Harbour Grates Cove Pool's Island Marticot Island Long Pond Eskasoni (First Nations) Îles de la Madeleine Airport
Legend:
buoy Buoy
land station Land Station

Atlantic - Newfoundland Area

Another Region

What we are doing

Date modified: